createdAt,value
2023-05-09T00:02:13.871Z,101168.94
2023-05-09T00:05:00.792Z,101169.66
2023-05-09T00:07:40.790Z,101174.03
2023-05-09T00:10:27.786Z,101168.03
2023-05-09T00:13:08.151Z,101163.19
2023-05-09T00:15:54.865Z,101159.31
2023-05-09T00:18:36.727Z,101164.81
2023-05-09T00:21:23.721Z,101158.91
2023-05-09T00:24:10.719Z,101160.31
2023-05-09T00:26:57.721Z,101167.28
2023-05-09T00:29:38.843Z,101174.94
2023-05-09T00:32:25.743Z,101171.47
2023-05-09T00:35:12.915Z,101177.41
2023-05-09T00:37:59.759Z,101177.72
2023-05-09T00:40:39.752Z,101182.75
2023-05-09T00:43:27.677Z,101181.19
2023-05-09T00:46:07.821Z,101187.75
2023-05-09T00:48:54.677Z,101187.94
2023-05-09T00:51:42.678Z,101180.00
2023-05-09T00:54:29.667Z,101187.44
2023-05-09T00:57:16.729Z,101179.16
2023-05-09T01:00:03.704Z,101181.44
2023-05-09T01:02:43.915Z,101190.84
2023-05-09T01:05:39.619Z,101188.06
2023-05-09T01:08:40.782Z,101194.72
2023-05-09T01:11:39.653Z,101194.00
2023-05-09T01:14:43.629Z,101190.75
2023-05-09T01:17:45.346Z,101200.16
2023-05-09T01:21:05.631Z,101189.19
2023-05-09T01:24:20.289Z,101196.78
2023-05-09T01:27:17.771Z,101196.59
2023-05-09T01:29:59.710Z,101187.84
2023-05-09T01:32:51.710Z,101186.97
2023-05-09T01:35:35.360Z,101192.34
2023-05-09T01:38:26.652Z,101192.03
2023-05-09T01:41:23.597Z,101188.47
2023-05-09T01:44:14.688Z,101181.81
2023-05-09T01:46:55.820Z,101179.66
2023-05-09T01:49:44.589Z,101184.06
2023-05-09T01:52:33.593Z,101185.19
2023-05-09T01:55:16.143Z,101170.06
2023-05-09T01:58:03.609Z,101170.03
2023-05-09T02:00:51.870Z,101176.72
2023-05-09T02:03:32.644Z,101172.59
2023-05-09T02:06:15.004Z,101181.69
2023-05-09T02:09:03.656Z,101185.91
2023-05-09T02:11:50.718Z,101192.53
2023-05-09T02:14:30.555Z,101184.97
2023-05-09T02:17:11.482Z,101177.41
2023-05-09T02:19:58.602Z,101171.06
2023-05-09T02:22:48.594Z,101181.09
2023-05-09T02:25:35.542Z,101174.22
2023-05-09T02:28:25.587Z,101184.97
2023-05-09T02:31:08.592Z,101182.19
2023-05-09T02:33:57.596Z,101183.09
2023-05-09T02:36:39.123Z,101194.66
2023-05-09T02:39:25.575Z,101196.06
2023-05-09T02:42:17.542Z,101199.13
2023-05-09T02:45:07.510Z,101192.09
2023-05-09T02:47:47.952Z,101196.78
2023-05-09T02:50:35.502Z,101195.13
2023-05-09T02:53:16.045Z,101194.16
2023-05-09T02:56:02.551Z,101200.06
2023-05-09T02:58:42.909Z,101200.47
2023-05-09T03:01:29.524Z,101190.78
2023-05-09T03:04:09.911Z,101193.66
2023-05-09T03:06:56.506Z,101193.16
2023-05-09T03:09:46.480Z,101197.31
2023-05-09T03:12:33.509Z,101200.19
2023-05-09T03:15:14.244Z,101206.25
2023-05-09T03:18:01.585Z,101202.56
2023-05-09T03:20:41.965Z,101213.47
2023-05-09T03:23:28.499Z,101211.75
2023-05-09T03:26:08.884Z,101218.22
2023-05-09T03:28:55.511Z,101211.53
2023-05-09T03:31:42.514Z,101216.94
2023-05-09T03:34:22.634Z,101232.28
2023-05-09T03:37:09.459Z,101221.16
2023-05-09T03:39:50.595Z,101216.25
2023-05-09T03:42:37.536Z,101226.50
2023-05-09T03:45:24.485Z,101223.94
2023-05-09T03:48:15.427Z,101223.00
2023-05-09T03:51:04.441Z,101233.63
2023-05-09T03:53:47.392Z,101226.56
2023-05-09T03:56:35.430Z,101235.56
2023-05-09T03:59:22.487Z,101235.22
2023-05-09T04:02:09.464Z,101229.38
2023-05-09T04:04:57.585Z,101233.69
2023-05-09T04:07:37.402Z,101233.25
2023-05-09T04:10:17.945Z,101241.44
2023-05-09T04:13:05.452Z,101246.75
2023-05-09T04:15:52.436Z,101241.03
2023-05-09T04:18:43.420Z,101234.19
2023-05-09T04:21:23.799Z,101244.00
2023-05-09T04:24:13.378Z,101248.78
2023-05-09T04:27:01.367Z,101250.53
2023-05-09T04:29:42.505Z,101254.25
2023-05-09T04:32:29.452Z,101253.28
2023-05-09T04:35:09.525Z,101242.16
2023-05-09T04:37:59.374Z,101255.97
2023-05-09T04:40:54.379Z,101249.94
2023-05-09T04:43:34.695Z,101255.38
2023-05-09T04:46:23.093Z,101259.84
2023-05-09T04:49:11.390Z,101247.56
2023-05-09T04:51:58.386Z,101267.72
2023-05-09T04:54:38.738Z,101254.78
2023-05-09T04:57:26.320Z,101267.09
2023-05-09T05:00:08.278Z,101270.41
2023-05-09T05:02:55.406Z,101275.66
2023-05-09T05:05:43.489Z,101275.28
2023-05-09T05:08:23.430Z,101267.84
2023-05-09T05:11:10.373Z,101265.19
2023-05-09T05:13:51.423Z,101267.88
2023-05-09T05:16:38.403Z,101287.06
2023-05-09T05:19:18.461Z,101268.03
2023-05-09T05:22:05.308Z,101271.72
2023-05-09T05:24:48.425Z,101274.16
2023-05-09T05:27:35.299Z,101269.72
2023-05-09T05:30:18.461Z,101275.81
2023-05-09T05:33:05.340Z,101283.03
2023-05-09T05:35:52.314Z,101283.56
2023-05-09T05:38:39.419Z,101274.28
2023-05-09T05:41:26.274Z,101270.00
2023-05-09T05:44:07.360Z,101278.72
2023-05-09T05:46:54.275Z,101273.88
2023-05-09T05:49:41.286Z,101271.78
2023-05-09T05:52:21.643Z,101271.09
2023-05-09T05:55:09.284Z,101280.56
2023-05-09T05:57:49.647Z,101273.88
2023-05-09T06:00:36.320Z,101276.38
2023-05-09T06:03:24.379Z,101277.97
2023-05-09T06:06:08.321Z,101283.44
2023-05-09T06:08:58.256Z,101285.22
2023-05-09T06:11:39.199Z,101287.16
2023-05-09T06:14:26.272Z,101288.16
2023-05-09T06:17:07.377Z,101289.97
2023-05-09T06:19:54.278Z,101280.31
2023-05-09T06:22:41.239Z,101282.31
2023-05-09T06:25:21.667Z,101291.28
2023-05-09T06:28:08.250Z,101290.38
2023-05-09T06:30:55.293Z,101286.81
2023-05-09T06:33:35.418Z,101281.03
2023-05-09T06:36:22.258Z,101285.88
2023-05-09T06:39:02.346Z,101295.69
2023-05-09T06:41:49.218Z,101296.06
2023-05-09T06:44:37.352Z,101298.22
2023-05-09T06:47:24.276Z,101299.22
2023-05-09T06:50:04.267Z,101303.81
2023-05-09T06:52:51.241Z,101289.25
2023-05-09T06:55:38.251Z,101297.28
2023-05-09T06:58:18.576Z,101289.25
2023-05-09T07:01:05.240Z,101294.50
2023-05-09T07:03:54.226Z,101287.94
2023-05-09T07:06:34.291Z,101290.16
2023-05-09T07:09:24.214Z,101293.31
2023-05-09T07:12:04.519Z,101293.59
2023-05-09T07:14:51.168Z,101293.84
2023-05-09T07:17:31.297Z,101298.91
2023-05-09T07:20:18.220Z,101299.25
2023-05-09T07:23:05.140Z,101291.31
2023-05-09T07:40:12.427Z,101298.41
2023-05-09T07:42:55.166Z,101300.75
2023-05-09T07:45:42.296Z,101311.50
2023-05-09T07:48:29.219Z,101310.44
2023-05-09T07:51:16.242Z,101308.31
2023-05-09T07:54:03.309Z,101304.00
2023-05-09T07:56:43.244Z,101318.44
2023-05-09T07:59:30.192Z,101307.84
2023-05-09T08:02:10.407Z,101313.09
2023-05-09T08:04:57.240Z,101322.88
2023-05-09T08:07:37.266Z,101320.94
2023-05-09T08:10:24.259Z,101313.56
2023-05-09T08:13:04.329Z,101319.41
2023-05-09T08:15:51.276Z,101316.47
2023-05-09T08:18:31.783Z,101313.47
2023-05-09T08:21:19.675Z,101320.06
2023-05-09T08:24:01.915Z,101313.16
2023-05-09T08:26:42.205Z,101305.03
2023-05-09T08:29:29.880Z,101312.88
2023-05-09T08:32:10.371Z,101309.09
2023-05-09T08:34:50.940Z,101305.50
2023-05-09T08:37:38.111Z,101307.84
2023-05-09T08:40:26.347Z,101305.41
2023-05-09T08:43:06.136Z,101315.53
2023-05-09T08:46:15.169Z,101324.81
2023-05-09T08:48:55.329Z,101315.13
2023-05-09T08:51:43.126Z,101309.25
2023-05-09T08:54:24.271Z,101301.25
2023-05-09T08:57:11.157Z,101312.16
2023-05-09T08:59:51.549Z,101298.47
2023-05-09T09:02:40.167Z,101293.69
2023-05-09T09:05:40.298Z,101303.06
2023-05-09T09:08:29.145Z,101297.34
2023-05-09T09:11:10.187Z,101301.53
2023-05-09T09:14:00.134Z,101297.47
2023-05-09T09:16:43.456Z,101293.69
2023-05-09T09:19:24.157Z,101294.78
2023-05-09T09:22:05.055Z,101297.22
2023-05-09T09:24:52.119Z,101289.53
2023-05-09T09:27:39.113Z,101290.41
2023-05-09T09:30:19.229Z,101288.94
2023-05-09T09:33:07.195Z,101293.31
2023-05-09T09:35:55.157Z,101288.91
2023-05-09T09:38:54.066Z,101293.97
2023-05-09T09:41:43.121Z,101293.34
2023-05-09T09:44:29.435Z,101297.25
2023-05-09T09:47:17.072Z,101296.75
2023-05-09T09:50:04.217Z,101305.91
2023-05-09T09:53:04.037Z,101308.53
2023-05-09T09:55:51.035Z,101307.72
2023-05-09T09:58:38.118Z,101306.06
2023-05-09T10:01:20.836Z,101302.78
2023-05-09T10:04:10.074Z,101303.91
2023-05-09T10:07:06.213Z,101309.91
2023-05-09T10:09:55.032Z,101308.78
2023-05-09T10:12:42.093Z,101316.41
2023-05-09T10:15:35.649Z,101314.97
2023-05-09T10:18:32.301Z,101319.44
2023-05-09T10:21:22.011Z,101319.13
2023-05-09T10:24:02.144Z,101329.72
2023-05-09T10:26:56.058Z,101326.47
2023-05-09T10:29:47.974Z,101327.63
2023-05-09T10:32:54.261Z,101310.28
2023-05-09T10:35:43.030Z,101319.28
2023-05-09T10:38:37.025Z,101318.44
2023-05-09T10:41:19.015Z,101321.78
2023-05-09T10:44:06.020Z,101325.75
2023-05-09T10:46:47.142Z,101313.00
2023-05-09T10:49:36.949Z,101311.72
2023-05-09T10:52:17.408Z,101319.25
2023-05-09T10:55:16.206Z,101312.19
2023-05-09T10:57:56.354Z,101312.53
2023-05-09T11:00:42.999Z,101311.94
2023-05-09T11:03:27.464Z,101311.91
2023-05-09T11:06:13.975Z,101315.38
2023-05-09T11:08:54.474Z,101314.22
2023-05-09T11:11:40.941Z,101325.50
2023-05-09T11:14:39.953Z,101318.97
2023-05-09T11:17:34.197Z,101327.88
2023-05-09T11:20:20.953Z,101319.19
2023-05-09T11:23:06.205Z,101318.88
2023-05-09T11:25:54.944Z,101319.59
2023-05-09T11:28:40.031Z,101326.81
2023-05-09T11:31:26.970Z,101323.13
2023-05-09T11:34:09.297Z,101334.25
2023-05-09T11:36:56.123Z,101337.75
2023-05-09T11:39:36.008Z,101324.78
2023-05-09T11:42:23.895Z,101328.94
2023-05-09T11:45:12.024Z,101326.47
2023-05-09T11:47:59.923Z,101329.72
2023-05-09T11:50:47.953Z,101334.16
2023-05-09T11:53:28.347Z,101333.72
2023-05-09T11:56:18.918Z,101331.31
2023-05-09T11:59:05.980Z,101323.47
2023-05-09T12:01:45.885Z,101329.47
2023-05-09T12:04:29.262Z,101323.91
2023-05-09T12:07:15.911Z,101330.84
2023-05-09T12:09:56.342Z,101327.00
2023-05-09T12:12:42.880Z,101319.44
2023-05-09T12:15:30.890Z,101321.81
2023-05-09T12:18:13.106Z,101317.72
2023-05-09T12:20:59.843Z,101320.31
2023-05-09T12:23:43.014Z,101312.28
2023-05-09T12:26:29.858Z,101315.75
2023-05-09T12:29:10.008Z,101305.75
2023-05-09T12:31:56.882Z,101309.59
2023-05-09T12:34:38.054Z,101301.50
2023-05-09T12:37:25.828Z,101310.34
2023-05-09T12:40:22.014Z,101310.16
2023-05-09T12:43:03.616Z,101306.06
2023-05-09T12:45:52.793Z,101304.22
2023-05-09T12:48:38.283Z,101309.66
2023-05-09T12:51:24.889Z,101300.75
2023-05-09T12:54:11.847Z,101309.00
2023-05-09T12:56:56.943Z,101308.69
2023-05-09T12:59:43.808Z,101307.69
2023-05-09T13:02:30.915Z,101309.16
2023-05-09T13:05:19.172Z,101312.94
2023-05-09T13:08:09.831Z,101301.66
2023-05-09T13:10:53.640Z,101292.91
2023-05-09T13:13:42.977Z,101295.91
2023-05-09T13:16:29.838Z,101301.28
2023-05-09T13:19:09.878Z,101291.31
2023-05-09T13:21:56.789Z,101297.50
2023-05-09T13:24:36.932Z,101297.38
2023-05-09T13:27:23.845Z,101288.72
2023-05-09T13:30:03.967Z,101295.13
2023-05-09T13:32:50.810Z,101286.00
2023-05-09T13:35:30.963Z,101291.56
2023-05-09T13:38:17.802Z,101297.09
2023-05-09T13:41:04.893Z,101304.63
2023-05-09T13:43:46.811Z,101310.88
2023-05-09T13:46:27.203Z,101307.03
2023-05-09T13:49:13.801Z,101305.56
2023-05-09T13:52:03.789Z,101305.22
2023-05-09T13:54:50.799Z,101309.84
2023-05-09T13:57:31.114Z,101303.22
2023-05-09T14:00:17.924Z,101295.47
2023-05-09T14:02:58.156Z,101296.28
2023-05-09T14:05:44.796Z,101302.03
2023-05-09T14:08:25.157Z,101302.19
2023-05-09T14:11:12.733Z,101302.19
2023-05-09T14:13:53.189Z,101314.28
2023-05-09T14:16:39.774Z,101297.09
2023-05-09T14:19:20.374Z,101294.63
2023-05-09T14:22:06.777Z,101294.13
2023-05-09T14:24:47.223Z,101291.97
2023-05-09T14:27:33.782Z,101297.34
2023-05-09T14:30:20.766Z,101286.78
2023-05-09T14:33:00.909Z,101287.63
2023-05-09T14:35:47.748Z,101292.97
2023-05-09T14:38:41.760Z,101285.91
2023-05-09T14:41:28.878Z,101289.38
2023-05-09T14:44:08.712Z,101297.09
2023-05-09T14:46:49.295Z,101294.03
2023-05-09T14:49:35.678Z,101290.31
2023-05-09T14:52:24.673Z,101280.78
2023-05-09T14:55:06.285Z,101281.78
2023-05-09T14:57:52.717Z,101286.78
2023-05-09T15:00:34.115Z,101298.94
2023-05-09T15:03:20.635Z,101292.34
2023-05-09T15:06:00.821Z,101306.63
2023-05-09T15:08:47.703Z,101298.63
2023-05-09T15:11:28.745Z,101297.88
2023-05-09T15:14:17.657Z,101296.44
2023-05-09T15:17:01.294Z,101299.63
2023-05-09T15:19:48.653Z,101307.25
2023-05-09T15:22:40.595Z,101303.69
2023-05-09T15:25:28.685Z,101307.25
2023-05-09T15:28:08.795Z,101297.19
2023-05-09T15:30:55.676Z,101305.16
2023-05-09T15:33:35.780Z,101312.53
2023-05-09T15:36:22.669Z,101315.19
2023-05-09T15:39:09.779Z,101299.94
2023-05-09T15:41:49.586Z,101317.34
2023-05-09T15:44:30.118Z,101310.06
2023-05-09T15:47:16.639Z,101303.69
2023-05-09T15:50:03.724Z,101307.22
2023-05-09T15:52:50.654Z,101312.94
2023-05-09T15:55:38.597Z,101317.91
2023-05-09T15:58:25.671Z,101316.47
2023-05-09T16:01:07.958Z,101309.72
2023-05-09T16:03:54.809Z,101318.88
2023-05-09T16:06:35.399Z,101314.59
2023-05-09T16:09:22.582Z,101310.03
2023-05-09T16:12:03.358Z,101310.31
2023-05-09T16:14:50.718Z,101317.50
2023-05-09T16:17:33.835Z,101303.97
2023-05-09T16:20:21.577Z,101302.94
2023-05-09T16:23:08.653Z,101295.22
2023-05-09T16:25:49.882Z,101307.56
2023-05-09T16:28:36.562Z,101309.09
2023-05-09T16:31:23.628Z,101306.84
2023-05-09T16:34:03.969Z,101309.56
2023-05-09T16:36:51.651Z,101307.41
2023-05-09T16:39:45.596Z,101317.31
2023-05-09T16:42:25.986Z,101327.16
2023-05-09T16:45:12.659Z,101313.25
2023-05-09T16:47:54.160Z,101322.16
2023-05-09T16:50:40.564Z,101313.88
2023-05-09T16:53:22.940Z,101310.38
2023-05-09T16:56:09.549Z,101321.72
2023-05-09T16:58:51.491Z,101313.34
2023-05-09T17:01:32.026Z,101315.59
2023-05-09T17:04:18.564Z,101320.59
2023-05-09T17:06:59.025Z,101306.38
2023-05-09T17:09:45.585Z,101319.50
2023-05-09T17:12:34.554Z,101324.59
2023-05-09T17:15:15.850Z,101339.22
2023-05-09T17:18:02.568Z,101329.28
2023-05-09T17:20:49.470Z,101325.03
2023-05-09T17:23:29.893Z,101322.25
2023-05-09T17:26:16.497Z,101322.13
2023-05-09T17:28:57.277Z,101320.81
2023-05-09T17:31:44.557Z,101324.31
2023-05-09T17:34:24.895Z,101329.72
2023-05-09T17:37:15.507Z,101321.63
2023-05-09T17:40:10.481Z,101337.25
2023-05-09T17:42:50.797Z,101333.78
2023-05-09T17:45:37.459Z,101337.78
2023-05-09T17:48:18.306Z,101337.06
2023-05-09T17:51:05.470Z,101331.91
2023-05-09T17:53:46.896Z,101339.78
2023-05-09T17:56:33.489Z,101342.09
2023-05-09T17:59:13.854Z,101344.13
2023-05-09T18:02:01.650Z,101348.53
2023-05-09T18:04:48.901Z,101354.84
2023-05-09T18:07:29.466Z,101355.75
2023-05-09T18:10:17.649Z,101360.44
2023-05-09T18:12:57.615Z,101359.09
2023-05-09T18:15:44.464Z,101357.84
2023-05-09T18:18:24.559Z,101360.31
2023-05-09T18:21:12.464Z,101362.63
2023-05-09T18:23:52.840Z,101361.47
2023-05-09T18:26:39.437Z,101356.06
2023-05-09T18:29:19.709Z,101359.94
2023-05-09T18:32:06.373Z,101363.59
2023-05-09T18:34:55.384Z,101362.75
2023-05-09T18:37:43.418Z,101360.91
2023-05-09T18:40:30.724Z,101365.97
2023-05-09T18:43:10.365Z,101359.69
2023-05-09T18:45:52.022Z,101360.28
2023-05-09T18:48:38.433Z,101352.31
2023-05-09T18:51:19.545Z,101365.28
2023-05-09T18:54:08.466Z,101364.00
2023-05-09T18:56:49.672Z,101359.91
2023-05-09T18:59:36.413Z,101360.72
2023-05-09T19:02:17.049Z,101358.25
2023-05-09T19:05:03.361Z,101367.94
2023-05-09T19:07:51.701Z,101360.19
2023-05-09T19:10:31.434Z,101362.72
2023-05-09T19:13:18.469Z,101350.66
2023-05-09T19:16:06.380Z,101357.00
2023-05-09T19:18:47.404Z,101365.63
2023-05-09T19:21:35.352Z,101366.72
2023-05-09T19:24:15.712Z,101365.09
2023-05-09T19:27:02.324Z,101369.25
2023-05-09T19:42:12.135Z,101373.81
2023-05-09T19:45:00.194Z,101376.19
2023-05-09T19:47:40.267Z,101366.47
2023-05-09T19:50:28.061Z,101376.34
2023-05-09T19:53:08.255Z,101371.94
2023-05-09T19:55:55.094Z,101373.03
2023-05-09T19:58:35.170Z,101366.66
2023-05-09T20:01:24.104Z,101372.78
2023-05-09T20:04:04.354Z,101380.16
2023-05-09T20:06:52.047Z,101374.97
2023-05-09T20:09:40.092Z,101373.16
2023-05-09T20:12:29.920Z,101368.31
2023-05-09T20:15:10.262Z,101367.72
2023-05-09T20:17:57.016Z,101368.56
2023-05-09T20:20:44.041Z,101358.41
2023-05-09T20:23:31.062Z,101357.31
2023-05-09T20:26:11.261Z,101352.06
2023-05-09T20:28:58.018Z,101353.16
2023-05-09T20:31:38.168Z,101359.91
2023-05-09T20:34:26.011Z,101352.19
2023-05-09T20:37:06.275Z,101351.91
2023-05-09T20:39:53.004Z,101347.47
2023-05-09T20:42:33.090Z,101350.56
2023-05-09T20:45:19.967Z,101356.63
2023-05-09T20:48:01.812Z,101346.97
2023-05-09T20:50:49.040Z,101338.16
2023-05-09T20:53:38.044Z,101341.47
2023-05-09T20:56:19.594Z,101337.94
2023-05-09T20:59:08.059Z,101337.41
2023-05-09T21:01:55.057Z,101336.00
2023-05-09T21:04:35.135Z,101332.78
2023-05-09T21:07:26.026Z,101332.50
2023-05-09T21:10:06.116Z,101324.53
2023-05-09T21:12:53.034Z,101321.50
2023-05-09T21:15:33.069Z,101324.81
2023-05-09T21:18:19.961Z,101319.25
2023-05-09T21:21:00.027Z,101316.75
2023-05-09T21:23:46.972Z,101320.59
2023-05-09T21:26:27.049Z,101312.34
2023-05-09T21:29:13.954Z,101315.63
2023-05-09T21:31:54.072Z,101315.91
2023-05-09T21:34:40.924Z,101304.69
2023-05-09T21:37:21.020Z,101308.53
2023-05-09T21:40:08.976Z,101303.94
2023-05-09T21:42:49.058Z,101311.28
2023-05-09T21:45:35.982Z,101306.38
2023-05-09T21:48:16.193Z,101297.88
2023-05-09T21:51:02.925Z,101299.22
2023-05-09T21:53:49.892Z,101297.59
2023-05-09T21:56:36.914Z,101300.03
2023-05-09T21:59:20.775Z,101305.84
2023-05-09T22:02:08.018Z,101294.25
2023-05-09T22:04:48.193Z,101297.53
2023-05-09T22:07:34.937Z,101295.59
2023-05-09T22:10:15.303Z,101289.00
2023-05-09T22:13:01.939Z,101276.34
2023-05-09T22:15:48.916Z,101291.97
2023-05-09T22:18:29.838Z,101285.66
2023-05-09T22:21:16.906Z,101282.91
2023-05-09T22:23:57.342Z,101276.06
2023-05-09T22:26:43.869Z,101279.66
2023-05-09T22:29:24.394Z,101283.22
2023-05-09T22:32:10.912Z,101279.94
2023-05-09T22:34:58.136Z,101285.44
2023-05-09T22:37:37.885Z,101270.84
2023-05-09T22:40:33.827Z,101285.44
2023-05-09T22:43:20.868Z,101281.28
2023-05-09T22:46:01.024Z,101282.91
2023-05-09T22:48:47.883Z,101274.97
2023-05-09T22:51:34.825Z,101274.41
2023-05-09T22:54:17.937Z,101272.53
2023-05-09T22:57:04.801Z,101272.31
2023-05-09T22:59:51.825Z,101265.47
2023-05-09T23:02:32.011Z,101264.09
2023-05-09T23:05:18.840Z,101267.47
2023-05-09T23:07:58.923Z,101257.06
2023-05-09T23:10:45.787Z,101262.59
2023-05-09T23:13:26.098Z,101258.22
2023-05-09T23:16:12.836Z,101257.69
2023-05-09T23:18:52.950Z,101257.25
2023-05-09T23:21:39.836Z,101250.69
2023-05-09T23:24:19.860Z,101255.41
2023-05-09T23:27:06.796Z,101256.84
2023-05-09T23:29:46.916Z,101252.75
2023-05-09T23:32:33.782Z,101250.31
2023-05-09T23:35:13.890Z,101249.25
2023-05-09T23:38:00.767Z,101246.88
2023-05-09T23:40:57.780Z,101246.88
2023-05-09T23:43:44.794Z,101245.84
2023-05-09T23:46:24.983Z,101244.22
2023-05-09T23:49:11.798Z,101235.75
2023-05-09T23:51:51.878Z,101230.28
2023-05-09T23:54:38.750Z,101231.13
2023-05-09T23:57:18.848Z,101226.25
